createdAt,value
2018-10-03T00:02:26.148Z,2.50
2018-10-03T00:04:56.971Z,2.77
2018-10-03T00:07:28.191Z,2.80
2018-10-03T00:09:58.774Z,2.67
2018-10-03T00:12:29.485Z,3.03
2018-10-03T00:15:02.624Z,2.97
2018-10-03T00:17:33.174Z,2.90
2018-10-03T00:20:04.117Z,2.97
2018-10-03T00:22:34.613Z,3.73
2018-10-03T00:25:05.355Z,3.43
2018-10-03T00:27:35.989Z,3.07
2018-10-03T00:30:07.404Z,2.70
2018-10-03T00:32:38.115Z,3.40
2018-10-03T00:35:08.682Z,3.27
2018-10-03T00:37:39.325Z,3.70
2018-10-03T00:40:10.589Z,3.73
2018-10-03T00:42:41.156Z,3.60
2018-10-03T00:45:11.834Z,3.60
2018-10-03T00:47:42.453Z,3.63
2018-10-03T00:50:13.134Z,3.70
2018-10-03T00:52:43.614Z,3.47
2018-10-03T00:55:14.232Z,4.23
2018-10-03T00:57:44.899Z,4.10
2018-10-03T01:00:15.694Z,4.07
2018-10-03T01:02:46.696Z,3.40
2018-10-03T01:05:17.462Z,4.03
2018-10-03T01:07:47.983Z,4.50
2018-10-03T01:10:18.726Z,5.07
2018-10-03T01:12:49.258Z,4.23
2018-10-03T01:15:19.773Z,4.33
2018-10-03T01:17:50.580Z,4.33
2018-10-03T01:20:21.144Z,4.03
2018-10-03T01:22:51.757Z,4.17
2018-10-03T01:25:22.942Z,4.80
2018-10-03T01:27:53.723Z,4.83
2018-10-03T01:30:24.357Z,4.70
2018-10-03T01:32:55.219Z,4.47
2018-10-03T01:35:25.812Z,4.80
2018-10-03T01:37:56.536Z,4.23
2018-10-03T01:40:27.066Z,4.30
2018-10-03T01:42:57.689Z,4.23
2018-10-03T01:45:28.267Z,4.67
2018-10-03T01:47:58.836Z,5.13
2018-10-03T01:50:29.601Z,4.17
2018-10-03T01:53:00.211Z,4.10
2018-10-03T01:55:31.135Z,4.40
2018-10-03T01:58:01.690Z,3.50
2018-10-03T02:00:32.459Z,4.30
2018-10-03T02:03:03.155Z,4.13
2018-10-03T02:05:33.910Z,3.90
2018-10-03T02:08:04.494Z,4.33
2018-10-03T02:10:35.117Z,4.10
2018-10-03T02:13:06.250Z,3.93
2018-10-03T02:15:36.622Z,4.00
2018-10-03T02:18:07.302Z,3.83
2018-10-03T02:20:38.310Z,3.80
2018-10-03T02:23:08.987Z,4.20
2018-10-03T02:25:39.624Z,3.67
2018-10-03T02:28:10.437Z,3.47
2018-10-03T02:30:41.189Z,3.87
2018-10-03T02:33:11.855Z,3.63
2018-10-03T02:35:42.551Z,4.00
2018-10-03T02:38:13.185Z,4.93
2018-10-03T02:40:43.998Z,4.37
2018-10-03T02:43:14.543Z,5.03
2018-10-03T02:45:47.013Z,4.47
2018-10-03T02:48:18.036Z,4.67
2018-10-03T02:50:48.748Z,4.37
2018-10-03T02:53:19.366Z,4.87
2018-10-03T02:55:50.099Z,4.40
2018-10-03T02:58:20.607Z,4.30
2018-10-03T03:00:51.125Z,4.90
2018-10-03T03:03:22.213Z,4.87
2018-10-03T03:05:53.372Z,4.77
2018-10-03T03:08:24.453Z,4.50
2018-10-03T03:11:02.002Z,4.50
2018-10-03T03:13:33.016Z,5.10
2018-10-03T03:16:03.832Z,5.13
2018-10-03T03:18:34.838Z,4.80
2018-10-03T03:21:05.995Z,5.43
2018-10-03T03:23:36.562Z,4.33
2018-10-03T03:26:07.441Z,5.40
2018-10-03T03:28:38.012Z,6.07
2018-10-03T03:31:08.564Z,5.67
2018-10-03T03:33:39.534Z,5.70
2018-10-03T03:36:10.357Z,6.20
2018-10-03T03:38:44.291Z,5.93
2018-10-03T03:41:15.041Z,6.20
2018-10-03T03:43:45.597Z,5.87
2018-10-03T03:46:16.300Z,6.80
2018-10-03T03:48:47.217Z,6.40
2018-10-03T03:51:17.753Z,6.03
2018-10-03T03:53:48.275Z,6.70
2018-10-03T03:56:18.793Z,6.73
2018-10-03T03:58:49.307Z,7.20
2018-10-03T04:01:20.034Z,7.13
2018-10-03T04:03:50.703Z,6.80
2018-10-03T04:06:21.349Z,7.37
2018-10-03T04:08:52.169Z,7.67
2018-10-03T04:11:22.799Z,8.10
2018-10-03T04:13:53.350Z,7.40
2018-10-03T04:16:23.931Z,7.53
2018-10-03T04:18:54.548Z,6.90
2018-10-03T04:21:29.189Z,7.13
2018-10-03T04:24:00.031Z,7.60
2018-10-03T04:26:30.691Z,7.77
2018-10-03T04:29:01.441Z,8.30
2018-10-03T04:31:32.736Z,8.10
2018-10-03T04:34:04.519Z,8.10
2018-10-03T04:36:35.758Z,7.70
2018-10-03T04:39:09.008Z,7.97
2018-10-03T04:41:39.751Z,7.63
2018-10-03T04:44:10.532Z,7.77
2018-10-03T04:46:41.321Z,7.30
2018-10-03T04:49:12.115Z,7.47
2018-10-03T04:51:42.963Z,6.90
2018-10-03T04:54:13.472Z,7.20
2018-10-03T04:56:44.768Z,7.07
2018-10-03T04:59:15.564Z,7.60
2018-10-03T05:01:46.775Z,6.80
2018-10-03T05:04:17.638Z,7.53
2018-10-03T05:06:48.379Z,6.80
2018-10-03T05:09:19.050Z,6.77
2018-10-03T05:11:49.710Z,7.20
2018-10-03T05:14:20.313Z,6.33
2018-10-03T05:16:51.030Z,7.00
2018-10-03T05:19:21.680Z,6.93
2018-10-03T05:21:53.190Z,6.57
2018-10-03T05:24:23.704Z,5.70
2018-10-03T05:26:54.313Z,5.10
2018-10-03T05:29:25.254Z,5.90
2018-10-03T05:31:55.742Z,5.67
2018-10-03T05:34:26.471Z,6.10
2018-10-03T05:36:56.951Z,6.37
2018-10-03T05:39:27.688Z,6.20
2018-10-03T05:41:58.377Z,5.83
2018-10-03T05:44:28.981Z,6.17
2018-10-03T05:46:59.672Z,6.60
2018-10-03T05:49:30.397Z,6.10
2018-10-03T05:52:01.080Z,6.97
2018-10-03T05:54:31.617Z,5.87
2018-10-03T05:57:02.445Z,5.67
2018-10-03T05:59:33.202Z,6.03
2018-10-03T06:02:04.829Z,5.77
2018-10-03T06:04:35.464Z,6.10
2018-10-03T06:07:06.334Z,5.97
2018-10-03T06:09:36.973Z,6.00
2018-10-03T06:12:07.834Z,5.07
2018-10-03T06:14:38.549Z,6.10
2018-10-03T06:17:09.497Z,5.90
2018-10-03T06:19:40.652Z,5.23
2018-10-03T06:22:11.397Z,4.73
2018-10-03T06:24:42.321Z,4.30
2018-10-03T06:27:12.959Z,4.77
2018-10-03T06:29:44.172Z,4.37
2018-10-03T06:32:15.142Z,4.30
2018-10-03T06:34:46.052Z,4.40
2018-10-03T06:37:16.586Z,5.00
2018-10-03T06:39:47.713Z,4.17
2018-10-03T06:42:18.559Z,3.93
2018-10-03T06:44:49.406Z,4.60
2018-10-03T06:47:20.077Z,4.30
2018-10-03T06:49:51.122Z,4.37
2018-10-03T06:52:22.114Z,4.33
2018-10-03T06:54:53.127Z,4.10
2018-10-03T06:57:23.674Z,3.53
2018-10-03T06:59:54.614Z,4.50
2018-10-03T07:02:24.974Z,4.67
2018-10-03T07:04:55.823Z,3.93
2018-10-03T07:07:26.861Z,3.70
2018-10-03T07:09:57.555Z,4.07
2018-10-03T07:12:28.207Z,3.57
2018-10-03T07:14:59.138Z,3.40
2018-10-03T07:17:29.866Z,3.37
2018-10-03T07:20:00.705Z,3.37
2018-10-03T07:22:31.489Z,3.70
2018-10-03T07:25:02.366Z,4.13
2018-10-03T07:27:32.920Z,3.50
2018-10-03T07:30:10.270Z,3.70
2018-10-03T07:32:40.856Z,3.90
2018-10-03T07:35:12.925Z,4.17
2018-10-03T07:37:43.597Z,3.53
2018-10-03T07:40:14.368Z,3.50
2018-10-03T07:42:45.177Z,4.17
2018-10-03T07:45:15.698Z,4.27
2018-10-03T07:47:46.410Z,3.60
2018-10-03T07:50:17.110Z,3.50
2018-10-03T07:52:47.842Z,3.77
2018-10-03T07:55:18.494Z,3.80
2018-10-03T07:57:49.474Z,3.53
2018-10-03T08:00:26.813Z,3.63
2018-10-03T08:02:58.110Z,3.67
2018-10-03T08:05:29.297Z,3.43
2018-10-03T08:07:59.991Z,3.17
2018-10-03T08:10:30.822Z,3.07
2018-10-03T08:13:01.674Z,3.43
2018-10-03T08:15:32.308Z,3.47
2018-10-03T08:18:03.174Z,3.30
2018-10-03T08:20:33.896Z,3.47
2018-10-03T08:23:04.506Z,3.87
2018-10-03T08:25:35.402Z,3.27
2018-10-03T08:28:06.590Z,3.33
2018-10-03T08:30:37.366Z,3.20
2018-10-03T08:33:08.232Z,3.77
2018-10-03T08:35:39.120Z,4.07
2018-10-03T08:38:09.848Z,3.83
2018-10-03T08:40:41.032Z,2.97
2018-10-03T08:43:11.634Z,3.33
2018-10-03T08:45:42.589Z,3.50
2018-10-03T08:48:13.460Z,3.17
2018-10-03T08:50:44.364Z,4.03
2018-10-03T08:53:15.097Z,3.20
2018-10-03T08:55:45.880Z,3.50
2018-10-03T08:58:16.825Z,3.60
2018-10-03T09:00:47.807Z,2.87
2018-10-03T09:03:18.690Z,3.50
2018-10-03T09:05:49.438Z,3.80
2018-10-03T09:08:19.971Z,3.33
2018-10-03T09:10:50.925Z,3.17
2018-10-03T09:13:21.995Z,3.60
2018-10-03T09:15:52.877Z,3.13
2018-10-03T09:18:23.960Z,3.20
2018-10-03T09:20:54.828Z,4.03
2018-10-03T09:23:25.485Z,3.63
2018-10-03T09:25:56.238Z,4.00
2018-10-03T09:28:27.317Z,3.43
2018-10-03T09:30:58.158Z,4.13
2018-10-03T09:33:29.002Z,3.70
2018-10-03T09:36:01.246Z,3.60
2018-10-03T09:38:31.929Z,3.17
2018-10-03T09:41:02.844Z,3.77
2018-10-03T09:43:33.400Z,3.10
2018-10-03T09:46:04.338Z,3.50
2018-10-03T09:48:34.938Z,3.53
2018-10-03T09:51:05.584Z,3.13
2018-10-03T09:53:36.312Z,3.53
2018-10-03T09:56:06.963Z,3.77
2018-10-03T09:58:38.229Z,3.83
2018-10-03T10:01:19.020Z,3.27
2018-10-03T10:03:50.112Z,3.30
2018-10-03T10:06:22.768Z,3.47
2018-10-03T10:08:53.498Z,3.73
2018-10-03T10:11:24.389Z,3.23
2018-10-03T10:13:55.098Z,3.53
2018-10-03T10:16:25.894Z,3.30
2018-10-03T10:18:57.462Z,3.00
2018-10-03T10:21:28.330Z,2.70
2018-10-03T10:23:58.917Z,2.90
2018-10-03T10:26:29.751Z,2.87
2018-10-03T10:29:00.231Z,2.67
2018-10-03T10:31:30.967Z,3.20
2018-10-03T10:34:01.740Z,2.87
2018-10-03T10:36:32.500Z,2.60
2018-10-03T10:39:04.143Z,3.47
2018-10-03T10:41:35.142Z,3.17
2018-10-03T10:44:06.617Z,3.10
2018-10-03T10:46:37.700Z,2.90
2018-10-03T10:49:08.838Z,2.73
2018-10-03T10:51:39.978Z,3.03
2018-10-03T10:54:10.992Z,2.47
2018-10-03T10:56:41.994Z,2.70
2018-10-03T10:59:13.182Z,2.90
2018-10-03T11:01:43.979Z,3.33
2018-10-03T11:04:14.913Z,3.10
2018-10-03T11:06:45.565Z,6.17
2018-10-03T11:09:16.729Z,2.83
2018-10-03T11:11:47.334Z,2.77
2018-10-03T11:14:18.114Z,2.67
2018-10-03T11:16:48.876Z,2.87
2018-10-03T11:19:19.898Z,2.20
2018-10-03T11:21:50.619Z,3.47
2018-10-03T11:24:21.765Z,3.37
2018-10-03T11:26:53.228Z,3.00
2018-10-03T11:29:23.938Z,2.40
2018-10-03T11:31:55.226Z,2.90
2018-10-03T11:34:26.146Z,3.10
2018-10-03T11:36:56.706Z,2.43
2018-10-03T11:39:27.630Z,2.23
2018-10-03T11:41:58.287Z,2.57
2018-10-03T11:44:29.050Z,2.33
2018-10-03T11:47:00.324Z,2.72
2018-10-03T11:49:31.728Z,2.60
2018-10-03T11:52:03.110Z,2.37
2018-10-03T11:54:34.467Z,3.30
2018-10-03T11:57:06.256Z,2.70
2018-10-03T11:59:37.635Z,2.40
2018-10-03T12:02:09.312Z,2.05
2018-10-03T12:04:40.522Z,2.33
2018-10-03T12:07:11.845Z,2.60
2018-10-03T12:09:43.262Z,2.62
2018-10-03T12:12:14.054Z,2.57
2018-10-03T12:14:45.366Z,2.53
2018-10-03T12:17:16.177Z,2.60
2018-10-03T12:19:46.986Z,2.70
2018-10-03T12:22:17.768Z,2.30
2018-10-03T12:24:48.604Z,2.43
2018-10-03T12:27:19.897Z,2.70
2018-10-03T12:29:50.795Z,2.00
2018-10-03T12:32:21.570Z,2.37
2018-10-03T12:34:52.312Z,2.07
2018-10-03T12:37:23.003Z,2.70
2018-10-03T12:39:53.558Z,2.73
2018-10-03T12:42:24.406Z,2.20
2018-10-03T12:44:55.277Z,2.30
2018-10-03T12:47:26.132Z,2.17
2018-10-03T12:49:56.881Z,2.90
2018-10-03T12:52:28.508Z,2.72
2018-10-03T12:54:59.298Z,2.47
2018-10-03T12:57:29.744Z,2.37
2018-10-03T13:00:00.510Z,2.70
2018-10-03T13:02:31.117Z,2.30
2018-10-03T13:05:01.785Z,1.93
2018-10-03T13:07:32.827Z,2.00
2018-10-03T13:10:03.769Z,2.90
2018-10-03T13:12:34.654Z,2.00
2018-10-03T13:15:05.987Z,2.63
2018-10-03T13:17:36.897Z,2.47
2018-10-03T13:20:09.218Z,2.13
2018-10-03T13:22:39.902Z,2.50
2018-10-03T13:25:10.722Z,2.70
2018-10-03T13:27:42.616Z,2.30
2018-10-03T13:30:13.506Z,2.70
2018-10-03T13:32:44.298Z,2.23
2018-10-03T13:35:14.778Z,2.20
2018-10-03T13:37:45.396Z,2.10
2018-10-03T13:40:16.122Z,2.67
2018-10-03T13:42:46.845Z,2.27
2018-10-03T13:45:17.532Z,2.33
2018-10-03T13:47:48.078Z,1.87
2018-10-03T13:50:19.055Z,2.50
2018-10-03T13:52:49.792Z,2.53
2018-10-03T13:55:20.759Z,2.50
2018-10-03T13:57:51.842Z,2.53
2018-10-03T14:00:22.871Z,2.20
2018-10-03T14:02:53.682Z,2.47
2018-10-03T14:05:24.516Z,2.20
2018-10-03T14:07:55.253Z,2.00
2018-10-03T14:10:25.905Z,2.53
2018-10-03T14:12:56.950Z,2.83
2018-10-03T14:15:27.839Z,2.33
2018-10-03T14:17:58.534Z,2.33
2018-10-03T14:20:29.302Z,2.40
2018-10-03T14:23:00.479Z,2.37
2018-10-03T14:25:31.190Z,2.90
2018-10-03T14:28:02.089Z,2.40
2018-10-03T14:30:32.984Z,2.50
2018-10-03T14:33:04.185Z,2.13
2018-10-03T14:35:35.118Z,2.43
2018-10-03T14:38:06.452Z,2.60
2018-10-03T14:40:37.190Z,2.17
2018-10-03T14:43:08.111Z,2.30
2018-10-03T14:45:38.793Z,2.10
2018-10-03T14:48:09.802Z,2.83
2018-10-03T14:50:40.605Z,2.50
2018-10-03T14:53:11.047Z,2.27
2018-10-03T14:55:41.729Z,2.10
2018-10-03T14:58:12.581Z,2.47
2018-10-03T15:00:43.483Z,2.17
2018-10-03T15:03:14.271Z,2.23
2018-10-03T15:05:45.059Z,1.80
2018-10-03T15:08:15.795Z,2.80
2018-10-03T15:10:46.910Z,2.97
2018-10-03T15:13:17.735Z,1.83
2018-10-03T15:15:48.865Z,2.43
2018-10-03T15:18:19.865Z,2.17
2018-10-03T15:20:51.470Z,2.00
2018-10-03T15:23:22.579Z,2.10
2018-10-03T15:25:53.345Z,2.60
2018-10-03T15:28:24.022Z,1.83
2018-10-03T15:30:54.693Z,1.93
2018-10-03T15:33:25.517Z,2.10
2018-10-03T15:35:56.632Z,2.50
2018-10-03T15:38:27.437Z,1.93
2018-10-03T15:40:58.325Z,1.90
2018-10-03T15:43:29.028Z,2.23
2018-10-03T15:46:00.874Z,2.30
2018-10-03T15:48:31.664Z,2.33
2018-10-03T15:51:02.490Z,2.33
2018-10-03T15:53:33.657Z,2.13
2018-10-03T15:56:04.983Z,2.23
2018-10-03T15:58:35.876Z,2.50
2018-10-03T16:01:06.885Z,2.20
2018-10-03T16:03:37.613Z,2.70
2018-10-03T16:06:08.705Z,2.20
2018-10-03T16:08:39.803Z,2.40
2018-10-03T16:11:10.533Z,2.30
2018-10-03T16:13:41.516Z,2.23
2018-10-03T16:16:12.550Z,2.27
2018-10-03T16:18:43.476Z,2.50
2018-10-03T16:21:14.445Z,2.03
2018-10-03T16:23:45.452Z,2.40
2018-10-03T16:26:16.413Z,2.03
2018-10-03T16:28:47.327Z,2.00
2018-10-03T16:31:18.306Z,2.23
2018-10-03T16:33:49.010Z,1.70
2018-10-03T16:36:19.868Z,1.97
2018-10-03T16:38:50.888Z,1.90
2018-10-03T16:41:22.373Z,1.70
2018-10-03T16:43:53.176Z,1.93
2018-10-03T16:46:23.785Z,2.30
2018-10-03T16:48:54.832Z,2.13
2018-10-03T16:51:25.419Z,2.50
2018-10-03T16:53:56.362Z,2.40
2018-10-03T16:56:27.061Z,2.60
2018-10-03T16:58:57.848Z,2.40
2018-10-03T17:01:28.551Z,2.57
2018-10-03T17:03:59.903Z,2.30
2018-10-03T17:06:30.809Z,2.07
2018-10-03T17:09:02.157Z,2.30
2018-10-03T17:11:33.008Z,1.53
2018-10-03T17:14:28.178Z,2.07
2018-10-03T17:16:58.927Z,2.50
2018-10-03T17:19:30.234Z,2.07
2018-10-03T17:22:01.452Z,2.23
2018-10-03T17:24:33.761Z,2.07
2018-10-03T17:27:04.748Z,2.20
2018-10-03T17:29:35.891Z,2.13
2018-10-03T17:32:07.155Z,2.40
2018-10-03T17:34:38.392Z,1.90
2018-10-03T17:37:09.261Z,2.30
2018-10-03T17:39:40.061Z,1.90
2018-10-03T17:42:10.789Z,2.10
2018-10-03T17:44:41.799Z,2.60
2018-10-03T17:47:12.870Z,2.37
2018-10-03T17:49:50.214Z,2.67
2018-10-03T17:52:21.084Z,3.00
2018-10-03T17:54:51.986Z,2.93
2018-10-03T17:57:22.845Z,2.40
2018-10-03T17:59:53.450Z,2.47
2018-10-03T18:02:24.594Z,2.37
2018-10-03T18:04:55.470Z,2.27
2018-10-03T18:07:26.568Z,2.67
2018-10-03T18:09:57.410Z,2.80
2018-10-03T18:12:28.461Z,2.90
2018-10-03T18:14:59.473Z,2.80
2018-10-03T18:17:30.527Z,2.37
2018-10-03T18:20:01.382Z,2.90
2018-10-03T18:22:32.305Z,2.80
2018-10-03T18:25:03.175Z,2.57
2018-10-03T18:27:34.234Z,3.07
2018-10-03T18:30:05.901Z,2.53
2018-10-03T18:32:37.246Z,2.60
2018-10-03T18:35:08.802Z,2.87
2018-10-03T18:37:39.850Z,3.10
2018-10-03T18:40:10.857Z,3.00
2018-10-03T18:42:42.734Z,2.90
2018-10-03T18:45:13.819Z,2.53
2018-10-03T18:47:45.106Z,2.97
2018-10-03T18:50:16.753Z,2.67
2018-10-03T18:52:47.810Z,3.03
2018-10-03T18:55:18.751Z,3.53
2018-10-03T18:57:49.893Z,3.20
2018-10-03T19:00:21.246Z,2.90
2018-10-03T19:02:52.292Z,2.70
2018-10-03T19:05:23.443Z,3.27
2018-10-03T19:07:54.687Z,2.87
2018-10-03T19:10:25.759Z,2.70
2018-10-03T19:12:56.976Z,3.50
2018-10-03T19:15:27.901Z,3.10
2018-10-03T19:17:58.851Z,2.97
2018-10-03T19:20:30.297Z,2.80
2018-10-03T19:23:01.350Z,2.77
2018-10-03T19:25:32.602Z,3.50
2018-10-03T19:28:03.935Z,3.73
2018-10-03T19:30:35.195Z,3.40
2018-10-03T19:33:06.201Z,3.47
2018-10-03T19:35:37.756Z,3.20
2018-10-03T19:38:09.715Z,3.00
2018-10-03T19:40:40.619Z,3.60
2018-10-03T19:43:11.827Z,3.30
2018-10-03T19:45:42.898Z,3.73
2018-10-03T19:48:13.971Z,4.03
2018-10-03T19:50:44.803Z,3.80
2018-10-03T19:53:19.661Z,3.10
2018-10-03T19:55:50.426Z,3.57
2018-10-03T19:58:21.778Z,3.37
2018-10-03T20:00:52.533Z,3.30
2018-10-03T20:03:23.563Z,3.50
2018-10-03T20:05:54.410Z,3.60
2018-10-03T20:08:25.016Z,3.37
2018-10-03T20:10:55.741Z,3.80
2018-10-03T20:13:26.277Z,3.03
2018-10-03T20:15:57.176Z,3.30
2018-10-03T20:18:27.970Z,3.90
2018-10-03T20:20:58.773Z,2.73
2018-10-03T20:23:29.601Z,3.30
2018-10-03T20:26:00.579Z,3.40
2018-10-03T20:28:31.296Z,3.40
2018-10-03T20:31:02.026Z,3.77
2018-10-03T20:33:32.645Z,2.93
2018-10-03T20:36:03.756Z,2.70
2018-10-03T20:38:34.464Z,3.33
2018-10-03T20:41:05.525Z,3.03
2018-10-03T20:43:36.417Z,3.10
2018-10-03T20:46:07.758Z,2.83
2018-10-03T20:48:38.430Z,2.63
2018-10-03T20:51:09.530Z,3.53
2018-10-03T20:53:40.591Z,3.57
2018-10-03T20:56:11.330Z,2.90
2018-10-03T20:58:42.352Z,3.33
2018-10-03T21:01:13.106Z,2.67
2018-10-03T21:03:43.884Z,3.20
2018-10-03T21:06:14.606Z,3.67
2018-10-03T21:08:45.831Z,3.70
2018-10-03T21:11:16.855Z,3.87
2018-10-03T21:13:47.583Z,3.73
2018-10-03T21:16:18.598Z,3.37
2018-10-03T21:18:49.168Z,3.37
2018-10-03T21:21:20.045Z,3.20
2018-10-03T21:23:50.642Z,3.20
2018-10-03T21:26:21.456Z,3.30
2018-10-03T21:28:52.472Z,3.40
2018-10-03T21:31:23.346Z,3.20
2018-10-03T21:33:53.902Z,3.13
2018-10-03T21:36:24.582Z,3.20
2018-10-03T21:38:55.203Z,3.43
2018-10-03T21:41:26.405Z,3.03
2018-10-03T21:43:57.237Z,3.17
2018-10-03T21:46:28.366Z,3.60
2018-10-03T21:48:58.906Z,2.57
2018-10-03T21:51:29.921Z,3.17
2018-10-03T21:54:01.089Z,3.53
2018-10-03T21:56:32.240Z,2.93
2018-10-03T21:59:04.201Z,3.43
2018-10-03T22:01:34.778Z,3.13
2018-10-03T22:04:05.529Z,2.80
2018-10-03T22:06:36.189Z,2.80
2018-10-03T22:09:08.528Z,3.03
2018-10-03T22:11:39.090Z,3.13
2018-10-03T22:14:10.303Z,4.00
2018-10-03T22:16:40.925Z,3.53
2018-10-03T22:19:11.526Z,3.03
2018-10-03T22:21:42.212Z,3.20
2018-10-03T22:24:12.969Z,2.83
2018-10-03T22:26:43.727Z,2.70
2018-10-03T22:29:14.748Z,2.77
2018-10-03T22:31:45.478Z,2.40
2018-10-03T22:34:19.113Z,3.17
2018-10-03T22:36:49.777Z,2.67
2018-10-03T22:39:20.561Z,2.80
2018-10-03T22:41:51.075Z,2.83
2018-10-03T22:44:21.647Z,3.03
2018-10-03T22:46:52.213Z,3.07
2018-10-03T22:49:22.825Z,2.93
2018-10-03T22:51:53.887Z,2.63
2018-10-03T22:54:24.510Z,2.37
2018-10-03T22:56:55.350Z,2.63
2018-10-03T22:59:25.967Z,2.90
2018-10-03T23:01:57.067Z,2.67
2018-10-03T23:04:28.876Z,2.90
2018-10-03T23:06:59.877Z,2.37
2018-10-03T23:09:30.433Z,2.60
2018-10-03T23:12:01.131Z,2.70
2018-10-03T23:14:31.882Z,2.97
2018-10-03T23:17:02.399Z,2.53
2018-10-03T23:19:32.943Z,2.30
2018-10-03T23:22:03.755Z,2.50
2018-10-03T23:24:34.554Z,2.33
2018-10-03T23:27:05.670Z,2.97
2018-10-03T23:29:36.251Z,2.60
2018-10-03T23:32:07.058Z,2.23
2018-10-03T23:34:37.727Z,2.97
2018-10-03T23:37:09.278Z,1.90
2018-10-03T23:39:39.901Z,2.87
2018-10-03T23:42:10.576Z,2.47
2018-10-03T23:44:41.667Z,2.70
2018-10-03T23:47:12.331Z,2.60
2018-10-03T23:49:43.074Z,2.43
2018-10-03T23:52:13.845Z,2.07
2018-10-03T23:54:44.539Z,2.90
2018-10-03T23:57:15.139Z,2.90
2018-10-03T23:59:46.035Z,2.67
